Federico Barrios

Olheiro - Cerro Porteno
23 Abr 2028
Domingo
Processo

Personalidade

Adaptabilidade (10) Ambição (17) Controvérsia (2) Lealdade (12) Pressão (20) Profissionalismo (6) Espírito Esportivo (6) Temperamento (6)

Perfil

Estilo de Treinamento Democrático
Licença Nacional B
Determinação 12
Gestão de Pessoas 6
Motivação 10
Disciplina 10
Satisfação no Trabalho
100%
Fadiga
0%
Função Olheiro
Salário 16.7K p/s
Contrato 14.03.2030

Desempenho

Comportamento Bom
Eficácia do Treinamento
49%
Desenvolvimento do Jogador
65%
Prevenção de Lesões
25%
Implementação Tática
25%

Eventos Recentes

Avaliou um jogador agora
Participou de uma reunião de recrutamento agora
Recomendou um alvo de transferência agora
Recomendou um alvo de transferência agora
Participou de uma reunião de recrutamento agora
Avaliou um jogador agora
Avaliou um jogador agora
Avaliou um jogador 7d atrás

Monitorando agora

148
Jogador Clube Status Habilidade Confiança Observado Última observação Último voto
Exequiel Palacios Lazio Ativo 171 / 158 40% 3 22.04.2028 -
Manu Koné AS Roma Ativo 164 / 173 40% 2 22.04.2028 -
Max Bird Birmingham Ativo 150 / 137 40% 7 21.04.2028 -
Oliver Skipp Leicester City Ativo 145 / 129 40% 2 21.04.2028 -
Youssouf Fofana AC Milan Ativo 162 / 166 40% 1 19.04.2028 -
Matteo Prati Cagliari Ativo 134 / 139 40% 1 19.04.2028 -
Melvin Bard OGC Nice Ativo 144 / 154 40% 1 18.04.2028 -
César Tárrega Valencia Ativo 133 / 147 40% 1 18.04.2028 -
Ethan Ampadu Leeds United Ativo 164 / 151 40% 3 17.04.2028 -
James Garner Everton Ativo 156 / 149 40% 2 17.04.2028 -
Matteo Ruggeri Middlesbrough Ativo 148 / 158 40% 1 15.04.2028 -
Jordan Beyer Burnley Ativo 133 / 150 40% 1 15.04.2028 -
Joe Rodon Blackburn Rovers Ativo 144 / 140 40% 1 14.04.2028 -
Vitaly Janelt Derby County Ativo 145 / 149 40% 2 12.04.2028 -
Sander Berge Derby County Ativo 148 / 149 40% 2 12.04.2028 -
Tyler Adams Bournemouth Ativo 156 / 150 40% 6 11.04.2028 -
Jake O'Brien Everton Ativo 149 / 145 40% 4 06.04.2028 -
Adam Wharton Crystal Palace Ativo 153 / 156 40% 5 06.04.2028 -
Nico González Newcastle United Ativo 179 / 172 40% 2 05.04.2028 -
Tino Livramento Newcastle United Ativo 177 / 160 40% 5 05.04.2028 -
Leonardo Lelo Braga Ativo 137 / 149 40% 3 31.03.2028 -
Federico Pereira Toulouse FC Ativo 139 / 134 40% 2 31.03.2028 -
Andrey Santos Bolton Wanderers Ativo 150 / 148 40% 2 30.03.2028 -
Aaron Hickey Brentford Ativo 139 / 144 40% 2 23.03.2028 -
Nicolás Domínguez Cardiff City Ativo 157 / 143 40% 1 23.03.2028 -
Takehiro Tomiyasu Crystal Palace Ativo 150 / 144 40% 1 22.03.2028 -
Mateu Morey Girona Ativo 133 / 142 40% 2 19.03.2028 -
Adrià Altimira Deportivo La Coruña Ativo 145 / 131 40% 1 19.03.2028 -
Japhet Tanganga Sheffield United Ativo 137 / 147 40% 1 14.03.2028 -
Adrien Truffert Bournemouth Ativo 144 / 165 40% 3 13.03.2028 -
Quilindschy Hartman Burnley Ativo 144 / 159 40% 2 12.03.2028 -
Ben Chilwell Sheffield United Ativo 145 / 150 40% 2 10.03.2028 -
Pablo Ibañez Alavés Ativo 139 / 137 40% 2 10.03.2028 -
Shea Charles Southampton Ativo 150 / 137 40% 3 07.03.2028 -
Neco Williams Wrexham Ativo 155 / 154 40% 1 06.03.2028 -
Jack Hinshelwood Watford Ativo 149 / 150 40% 1 06.03.2028 -
Caio Alexandre Bahia Ativo 131 / 140 40% 3 04.03.2028 -
Callum Brittain Middlesbrough Ativo 121 / 134 40% 2 02.03.2028 -
Nordi Mukiele Sunderland Ativo 148 / 153 40% 4 29.02.2028 -
Abdukodir Khusanov Oxford United Ativo 165 / 166 40% 1 29.02.2028 -
Sven Botman Newcastle United Ativo 165 / 174 40% 2 28.02.2028 -
Vitinho Botafogo Ativo 131 / 137 40% 4 22.02.2028 -
Israel Reyes Toulouse FC Ativo 132 / 134 40% 2 12.02.2028 -
Gerard Martín Barcelona Ativo 156 / 155 40% 2 11.02.2028 -
Artem Bondarenko Shakhtar Ativo 141 / 126 40% 1 11.02.2028 -
Yerson Mosquera Wolverhampton Ativo 150 / 148 40% 1 08.02.2028 -
Yasin Ayari Middlesbrough Ativo 153 / 143 40% 1 04.02.2028 -
Manuel Ugarte Leicester City Ativo 136 / 143 40% 1 24.01.2028 -
Pedro Porro Tottenham Ativo 168 / 143 40% 1 18.01.2028 -
Marcos Antonio Sport Recife Ativo 149 / 137 40% 1 18.01.2028 -
David Carmo Olympiacos Ativo 145 / 143 40% 1 17.01.2028 -
André Wolverhampton Ativo 160 / 161 40% 3 16.01.2028 -
Damián Bobadilla Sport Recife Ativo 131 / 138 40% 1 16.01.2028 -
Xaver Schlager Nottingham Forest Ativo 151 / 163 40% 4 15.01.2028 -
Óscar Mingueza Crystal Palace Ativo 149 / 160 40% 2 14.01.2028 -
Danilo Botafogo Ativo 150 / 143 40% 2 11.01.2028 -
Angeliño AS Roma Ativo 140 / 158 40% 1 11.01.2028 -
Agustín Giay Palmeiras Ativo 134 / 130 40% 1 10.01.2028 -
Quinten Timber Crystal Palace Ativo 146 / 146 40% 3 08.01.2028 -
Alexandro Bernabei Internacional Ativo 137 / 134 40% 3 08.01.2028 -
Renan Lodi Atlético Mineiro Ativo 136 / 132 40% 2 06.01.2028 -
Bafodé Diakité Plymouth Argyle Ativo 155 / 136 40% 1 03.01.2028 -
Marcelo Fernández Libertad Ativo 119 / 115 58% 1 27.12.2027 Aprovar
Augusto Schott Talleres Ativo 120 / 130 40% 1 14.12.2027 -
Lucas Sanabria Libertad Ativo 115 / 116 58% 1 04.12.2027 Aprovar
Yassir Zabiri Stade Rennais Ativo 137 / 154 40% 1 30.11.2027 Mais informações
Martín Ojeda Orlando City Ativo 135 / 135 40% 1 30.11.2027 -
Marc Roca Betis Ativo 131 / 134 40% 1 29.11.2027 -
Juan Sierra La Equidad Ativo 131 / 123 40% 2 28.11.2027 -
Gonzalo Montiel River Plate Ativo 129 / 130 40% 2 27.11.2027 -
Nahitan Nández Bodo/Glimt Ativo 133 / 145 40% 1 26.11.2027 -
Ramón Valladolid Ativo 145 / 140 40% 2 25.11.2027 -
Felipe Peña Biafore Lanús Ativo 130 / 122 40% 1 25.11.2027 -
Rico Henry River Plate Ativo 133 / 149 40% 2 23.11.2027 -
Fredrik Bjørkan Bodo/Glimt Ativo 129 / 122 40% 3 22.11.2027 -
Lyanco Atlético Mineiro Ativo 125 / 139 40% 1 12.11.2027 -
Santiago González Tigre Ativo 136 / 130 40% 1 06.11.2027 -
Nicolás Romero Minnesota United FC Ativo 125 / 140 40% 2 05.11.2027 -
Marco Di Cesare Racing Club Ativo 128 / 135 40% 3 01.11.2027 -
Emanuel Mammana Vélez Ativo 120 / 134 40% 2 28.10.2027 -
Aníbal Moreno River Plate Ativo 123 / 127 40% 2 23.10.2027 -
Luciano Juba Bahia Ativo 132 / 126 40% 1 23.10.2027 -
Matheus Henrique Cruzeiro Ativo 132 / 131 40% 1 16.10.2027 -
César Inga Universitario Ativo 136 / 133 40% 3 12.10.2027 -
Ángelo Preciado Atlético Mineiro Ativo 140 / 129 40% 1 12.10.2027 -
Emil Breivik Molde Ativo 143 / 126 40% 1 10.10.2027 -
Juan Carlos Portillo River Plate Ativo 133 / 129 40% 1 07.10.2027 -
Niklas Dorsch Toronto FC Ativo 134 / 123 40% 4 03.10.2027 -
Aslak Fonn Witry Rosenborg Ativo 129 / 117 40% 1 30.09.2027 -
Lautaro Di Lollo Boca Juniors Ativo 136 / 134 40% 1 28.09.2027 -
Marcel Hartel St. Louis CITY SC Ativo 122 / 126 40% 1 28.09.2027 -
Franco Ibarra Rosario Central Ativo 139 / 124 40% 1 27.09.2027 -
Odin Bjørtuft Bodo/Glimt Ativo 120 / 133 40% 1 20.09.2027 -
Ignacio Vázquez Platense Ativo 130 / 131 40% 1 20.09.2027 -
Santiago Murillo Alianza Petrolera Ativo 121 / 129 40% 1 10.09.2027 -
Matheuzinho Corinthians Ativo 122 / 133 40% 1 09.09.2027 -
Marco Pellegrino Boca Juniors Ativo 135 / 127 40% 1 08.09.2027 -
Matías Palacios Al Ain Ativo 148 / 134 40% 1 31.08.2027 -
Santiago Salcedo Cruzeiro Ativo 164 / 148 40% 1 26.08.2027 -
Ismaël Bennacer Boca Juniors Ativo 154 / 140 40% 1 24.08.2027 -
Trevoh Chalobah Como Ativo 170 / 164 40% 1 20.08.2027 -
Johan Felipe Vásquez Genoa Ativo 145 / 151 40% 1 20.08.2027 -
Tommaso Pobega Bologna Ativo 160 / 136 40% 1 19.08.2027 -
Arthur Atta Fiorentina Ativo 163 / 150 40% 1 18.08.2027 -
Matteo Lovato Padova Ativo 142 / 125 40% 1 15.08.2027 -
Sebastiano Luperto Cremonese Ativo 124 / 140 40% 1 15.08.2027 -
Mehdi Dorval Catanzaro Ativo 143 / 123 40% 1 13.08.2027 -
Jacques Ekomié Wrexham Ativo 124 / 126 40% 2 07.08.2027 -
Jacob Greaves Ipswich Town Ativo 145 / 149 40% 4 05.08.2027 -
Luke McNally Bristol City Ativo 131 / 133 40% 1 05.08.2027 -
Yehor Yarmoliuk Brentford Ativo 138 / 145 40% 2 04.08.2027 -
Olivier Boscagli Brighton Ativo 162 / 153 40% 3 04.08.2027 -
Mats Wieffer Brighton Ativo 163 / 149 40% 3 01.08.2027 -
Gabriel Osho Cardiff City Ativo 124 / 138 40% 1 30.07.2027 -
Jarrad Branthwaite Everton Ativo 155 / 155 40% 3 29.07.2027 -
Edoardo Bove Watford Ativo 123 / 133 40% 2 23.07.2027 -
Adam Randell Bristol City Ativo 138 / 123 40% 3 22.07.2027 -
Milan van Ewijk Coventry City Ativo 127 / 139 40% 2 20.07.2027 -
Lewis O'Brien Wrexham Ativo 141 / 133 40% 1 19.07.2027 -
Lewis Gibson Preston Ativo 135 / 123 40% 1 19.07.2027 -
Ezequiel Centurión River Plate Ativo 136 / 120 40% 1 28.06.2027 -
Alejandro Rodríguez Melgar Ativo 123 / 123 40% 2 25.06.2027 -
Alex Palmer Ipswich Town Ativo 119 / 125 40% 1 14.06.2027 -
Max Johnston Derby County Ativo 143 / 131 40% 1 29.05.2027 -
Welington Southampton Ativo 144 / 126 40% 2 27.05.2027 -
Alex Scott Bournemouth Ativo 166 / 149 40% 2 23.05.2027 -
Chris Mepham West Bromwich Albion Ativo 119 / 122 40% 2 20.05.2027 -
Harrison Burrows Sheffield United Ativo 136 / 120 40% 1 20.05.2027 -
Florentino Luís Ipswich Town Ativo 151 / 143 40% 2 18.05.2027 -
Ousmane Diomande Nottingham Forest Ativo 169 / 149 40% 2 15.05.2027 -
Jack Currie Oxford United Ativo 106 / 115 40% 1 14.05.2027 -
Ollie Scarles West Ham United Ativo 123 / 141 40% 1 14.05.2027 -
Bosun Lawal Stoke City Ativo 131 / 136 40% 1 11.05.2027 -
Igor Burnley Ativo 129 / 136 40% 1 07.05.2027 -
Harry Clarke Preston Ativo 133 / 130 40% 1 07.05.2027 -
Alfie Doughty Millwall Ativo 120 / 133 40% 2 02.05.2027 -
Dara O'Shea Ipswich Town Ativo 127 / 133 40% 1 29.04.2027 -
Juanlu Bournemouth Ativo 155 / 152 40% 2 27.04.2027 -
Daniel Muñoz Nottingham Forest Ativo 161 / 144 40% 2 27.04.2027 -
Nathan Collins Brentford Ativo 158 / 144 40% 2 25.04.2027 -
Antonee Robinson Fulham Ativo 152 / 151 40% 1 04.04.2027 -
Matthew Targett Hull City Ativo 115 / 132 40% 1 03.04.2027 -
Ferland Mendy Real Madrid Ativo 128 / 144 40% 3 01.04.2027 -
Keane Lewis-Potter Brentford Ativo 150 / 151 40% 1 01.04.2027 -
Josh Tymon Swansea City Ativo 125 / 113 40% 1 28.03.2027 -
Morgan Billiat SuperSport United Ativo 107 / 114 40% 1 25.03.2027 -
Teboho Mokoena Mamelodi Sundowns Ativo 147 / 132 40% 1 23.03.2027 -
Ethan Galbraith Swansea City Ativo 138 / 124 40% 1 21.03.2027 -